createdAt,value
2019-04-16T00:01:57.544Z,68.53
2019-04-16T00:04:53.649Z,68.42
2019-04-16T00:07:38.936Z,68.29
2019-04-16T00:10:14.809Z,68.12
2019-04-16T00:13:05.378Z,67.70
2019-04-16T00:15:35.706Z,67.55
2019-04-16T00:18:06.187Z,67.71
2019-04-16T00:20:39.975Z,67.95
2019-04-16T00:23:17.240Z,68.09
2019-04-16T00:25:47.868Z,68.23
2019-04-16T00:28:16.610Z,68.26
2019-04-16T00:30:45.363Z,68.20
2019-04-16T00:33:14.074Z,68.40
2019-04-16T00:35:46.457Z,68.15
2019-04-16T00:38:13.848Z,68.60
2019-04-16T00:40:43.981Z,68.76
2019-04-16T00:43:13.896Z,69.03
2019-04-16T00:45:43.828Z,69.38
2019-04-16T00:48:12.755Z,69.36
2019-04-16T00:50:41.817Z,69.45
2019-04-16T00:53:10.784Z,69.22
2019-04-16T00:55:42.328Z,69.80
2019-04-16T00:58:19.446Z,70.42
2019-04-16T01:00:50.971Z,70.58
2019-04-16T01:03:19.531Z,70.41
2019-04-16T01:05:49.488Z,71.24
2019-04-16T01:08:18.140Z,71.76
2019-04-16T01:10:48.870Z,72.60
2019-04-16T01:13:21.731Z,72.55
2019-04-16T01:15:51.193Z,73.48
2019-04-16T01:18:19.739Z,73.08
2019-04-16T01:20:49.061Z,72.93
2019-04-16T01:23:18.487Z,72.39
2019-04-16T01:25:47.121Z,72.59
2019-04-16T01:28:20.430Z,72.83
2019-04-16T01:31:08.789Z,72.99
2019-04-16T01:34:07.175Z,73.05
2019-04-16T01:36:47.944Z,73.32
2019-04-16T01:39:18.479Z,73.33
2019-04-16T01:41:50.327Z,73.42
2019-04-16T01:44:18.880Z,73.63
2019-04-16T01:46:47.450Z,73.78
2019-04-16T01:49:19.219Z,73.81
2019-04-16T01:51:48.200Z,73.58
2019-04-16T01:54:16.821Z,73.20
2019-04-16T01:56:47.378Z,73.30
2019-04-16T01:59:15.925Z,73.48
2019-04-16T02:01:44.497Z,73.43
2019-04-16T02:04:19.515Z,73.90
2019-04-16T02:06:45.028Z,73.66
2019-04-16T02:09:22.251Z,74.42
2019-04-16T02:11:44.490Z,74.84
2019-04-16T02:14:14.563Z,74.65
2019-04-16T02:16:43.364Z,74.65
2019-04-16T02:19:12.374Z,74.89
2019-04-16T02:21:42.071Z,74.69
2019-04-16T02:24:11.099Z,74.56
2019-04-16T02:26:39.843Z,74.23
2019-04-16T02:29:09.975Z,74.10
2019-04-16T02:31:38.721Z,74.21
2019-04-16T02:34:07.808Z,74.63
2019-04-16T02:36:36.996Z,74.79
2019-04-16T02:39:07.280Z,75.13
2019-04-16T02:41:35.881Z,75.16
2019-04-16T02:44:04.717Z,75.85
2019-04-16T02:46:34.788Z,76.12
2019-04-16T02:49:03.504Z,76.07
2019-04-16T02:51:41.571Z,75.93
2019-04-16T02:54:34.581Z,76.27
2019-04-16T02:57:25.757Z,76.22
2019-04-16T02:59:50.240Z,75.73
2019-04-16T03:02:43.752Z,75.17
2019-04-16T03:05:34.403Z,74.73
2019-04-16T03:08:04.605Z,75.43
2019-04-16T03:10:34.643Z,75.52
2019-04-16T03:13:05.442Z,76.58
2019-04-16T03:15:53.304Z,75.47
2019-04-16T03:18:26.474Z,75.60
2019-04-16T03:20:55.639Z,75.82
2019-04-16T03:23:25.713Z,75.09
2019-04-16T03:25:54.409Z,74.85
2019-04-16T03:28:27.334Z,75.13
2019-04-16T03:30:54.390Z,76.03
2019-04-16T03:33:25.326Z,75.67
2019-04-16T03:35:57.793Z,75.96
2019-04-16T03:38:25.836Z,76.41
2019-04-16T03:40:56.095Z,76.36
2019-04-16T03:43:25.461Z,77.01
2019-04-16T03:45:54.020Z,77.67
2019-04-16T03:48:23.445Z,77.83
2019-04-16T03:50:52.911Z,78.58
2019-04-16T03:53:21.844Z,78.28
2019-04-16T03:55:57.889Z,78.00
2019-04-16T03:58:22.824Z,78.80
2019-04-16T04:00:51.549Z,78.55
2019-04-16T04:03:20.450Z,78.88
2019-04-16T04:05:55.905Z,79.46
2019-04-16T04:08:25.008Z,78.61
2019-04-16T04:10:56.775Z,78.44
2019-04-16T04:13:25.324Z,78.49
2019-04-16T04:15:55.146Z,78.43
2019-04-16T04:18:24.037Z,78.20
2019-04-16T04:20:53.110Z,78.32
2019-04-16T04:23:25.511Z,78.37
2019-04-16T04:25:53.538Z,78.76
2019-04-16T04:28:23.832Z,78.92
2019-04-16T04:30:52.785Z,78.53
2019-04-16T04:33:42.763Z,79.12
2019-04-16T04:36:10.516Z,78.93
2019-04-16T04:38:39.558Z,79.10
2019-04-16T04:41:08.604Z,79.05
2019-04-16T04:43:38.904Z,79.15
2019-04-16T04:46:12.535Z,78.88
2019-04-16T04:48:40.022Z,78.74
2019-04-16T04:51:09.128Z,78.38
2019-04-16T04:53:37.752Z,75.90
2019-04-16T04:56:06.474Z,74.12
2019-04-16T04:58:35.044Z,71.65
2019-04-16T05:01:03.667Z,70.21
2019-04-16T05:03:52.791Z,69.45
2019-04-16T05:06:27.858Z,68.56
2019-04-16T05:08:57.596Z,68.32
2019-04-16T05:11:25.715Z,67.41
2019-04-16T05:13:56.439Z,66.20
2019-04-16T05:16:25.712Z,65.33
2019-04-16T05:18:56.116Z,66.76
2019-04-16T05:21:26.729Z,67.87
2019-04-16T05:23:57.504Z,68.90
2019-04-16T05:26:26.460Z,70.42
2019-04-16T05:28:56.840Z,71.12
2019-04-16T05:31:31.094Z,71.19
2019-04-16T05:34:02.313Z,71.48
2019-04-16T05:36:32.913Z,71.26
2019-04-16T05:39:03.643Z,71.31
2019-04-16T05:41:32.296Z,71.37
2019-04-16T05:44:02.115Z,71.59
2019-04-16T05:46:30.753Z,72.45
2019-04-16T05:48:59.706Z,71.99
2019-04-16T05:51:31.370Z,71.82
2019-04-16T05:54:01.474Z,71.30
2019-04-16T05:56:38.323Z,70.52
2019-04-16T05:59:06.888Z,70.34
2019-04-16T06:01:49.218Z,69.86
2019-04-16T06:04:18.142Z,69.21
2019-04-16T06:06:48.743Z,68.36
2019-04-16T06:09:17.655Z,69.03
2019-04-16T06:11:47.561Z,68.78
2019-04-16T06:14:31.219Z,69.14
2019-04-16T06:17:19.213Z,68.72
2019-04-16T06:20:03.411Z,68.31
2019-04-16T06:22:53.970Z,66.67
2019-04-16T06:25:28.463Z,66.60
2019-04-16T06:28:22.024Z,64.87
2019-04-16T06:31:05.077Z,64.07
2019-04-16T06:33:41.405Z,63.83
2019-04-16T06:36:25.678Z,63.50
2019-04-16T06:39:18.158Z,63.51
2019-04-16T06:42:02.556Z,62.08
2019-04-16T06:44:34.979Z,61.73
2019-04-16T06:47:23.697Z,61.90
2019-04-16T06:50:12.924Z,61.30
2019-04-16T06:53:01.116Z,60.80
2019-04-16T06:55:42.794Z,58.70
2019-04-16T06:58:18.851Z,57.28
2019-04-16T07:39:39.759Z,56.64
2019-04-16T07:42:15.710Z,56.17
2019-04-16T07:45:00.459Z,57.49
2019-04-16T07:47:53.690Z,56.25
2019-04-16T07:50:35.822Z,56.56
2019-04-16T07:53:14.293Z,57.25
2019-04-16T07:55:50.823Z,56.07
2019-04-16T07:58:19.975Z,56.68
2019-04-16T08:00:50.741Z,56.20
2019-04-16T08:03:23.634Z,56.14
2019-04-16T08:05:52.764Z,54.75
2019-04-16T08:08:24.608Z,56.10
2019-04-16T08:10:54.576Z,54.23
2019-04-16T08:13:33.363Z,54.20
2019-04-16T08:15:58.684Z,54.20
2019-04-16T08:18:31.982Z,54.45
2019-04-16T08:21:10.206Z,56.81
2019-04-16T08:23:42.561Z,53.44
2019-04-16T08:26:13.944Z,54.21
2019-04-16T08:28:42.581Z,54.63
2019-04-16T08:31:16.002Z,56.27
2019-04-16T08:33:44.896Z,56.27
2019-04-16T08:36:15.231Z,54.29
2019-04-16T08:38:43.953Z,53.85
2019-04-16T08:41:13.380Z,53.42
2019-04-16T08:43:42.006Z,53.54
2019-04-16T08:46:11.568Z,52.65
2019-04-16T08:48:41.217Z,52.51
2019-04-16T08:51:10.092Z,53.47
2019-04-16T08:53:38.818Z,53.50
2019-04-16T08:56:07.386Z,54.37
2019-04-16T08:58:38.399Z,51.97
2019-04-16T09:01:08.612Z,53.29
2019-04-16T09:03:39.356Z,52.59
2019-04-16T09:06:13.013Z,52.40
2019-04-16T09:08:52.822Z,51.11
2019-04-16T09:11:23.415Z,52.33
2019-04-16T09:13:53.353Z,51.73
2019-04-16T09:16:22.448Z,51.94
2019-04-16T09:18:59.022Z,53.02
2019-04-16T09:21:28.185Z,51.93
2019-04-16T09:24:14.345Z,51.56
2019-04-16T09:26:52.738Z,51.89
2019-04-16T09:29:45.358Z,50.18
2019-04-16T09:32:33.218Z,50.86
2019-04-16T09:35:18.298Z,50.53
2019-04-16T09:38:13.376Z,49.32
2019-04-16T09:40:57.688Z,50.65
2019-04-16T09:43:28.402Z,49.59
2019-04-16T09:46:09.678Z,48.88
2019-04-16T09:48:27.570Z,48.46
2019-04-16T09:50:57.836Z,50.52
2019-04-16T09:53:33.429Z,48.63
2019-04-16T09:56:01.097Z,48.60
2019-04-16T09:58:29.647Z,47.03
2019-04-16T10:01:04.423Z,45.89
2019-04-16T10:03:36.972Z,46.40
2019-04-16T10:06:05.972Z,45.19
2019-04-16T10:08:34.618Z,46.49
2019-04-16T10:11:06.041Z,44.63
2019-04-16T10:13:36.089Z,45.28
2019-04-16T10:16:07.137Z,43.08
2019-04-16T10:18:36.353Z,43.39
2019-04-16T10:21:06.198Z,43.19
2019-04-16T10:24:00.875Z,43.61
2019-04-16T10:26:30.127Z,42.42
2019-04-16T10:29:00.025Z,43.19
2019-04-16T10:31:28.575Z,42.32
2019-04-16T10:33:57.131Z,41.54
2019-04-16T10:36:25.887Z,41.83
2019-04-16T10:39:00.950Z,42.98
2019-04-16T10:41:44.340Z,44.10
2019-04-16T10:44:37.777Z,42.16
2019-04-16T10:47:31.591Z,43.93
2019-04-16T10:50:22.206Z,43.43
2019-04-16T10:53:15.664Z,40.62
2019-04-16T10:56:02.029Z,41.21
2019-04-16T10:58:48.374Z,40.50
2019-04-16T11:01:42.223Z,41.10
2019-04-16T11:04:43.970Z,42.45
2019-04-16T11:07:15.978Z,42.02
2019-04-16T11:09:44.586Z,41.36
2019-04-16T11:12:13.156Z,42.44
2019-04-16T11:14:41.661Z,41.47
2019-04-16T11:17:10.416Z,40.09
2019-04-16T11:19:38.974Z,39.54
2019-04-16T11:22:07.493Z,43.74
2019-04-16T11:24:37.636Z,42.10
2019-04-16T11:27:06.490Z,40.23
2019-04-16T11:29:35.114Z,43.52
2019-04-16T11:32:03.709Z,40.85
2019-04-16T11:34:32.625Z,38.39
2019-04-16T11:37:07.488Z,41.67
2019-04-16T11:39:31.614Z,38.07
2019-04-16T11:42:00.361Z,39.75
2019-04-16T11:44:28.958Z,37.03
2019-04-16T11:46:57.581Z,36.38
2019-04-16T11:49:26.244Z,36.38
2019-04-16T11:51:54.810Z,37.42
2019-04-16T11:54:24.778Z,40.11
2019-04-16T11:56:55.568Z,35.49
2019-04-16T11:59:23.955Z,33.95
2019-04-16T12:02:03.194Z,35.83
2019-04-16T12:04:57.193Z,37.44
2019-04-16T12:07:40.745Z,38.14
2019-04-16T12:10:29.393Z,35.32
2019-04-16T12:13:14.856Z,36.39
2019-04-16T12:15:59.538Z,36.55
2019-04-16T12:18:58.147Z,35.42
2019-04-16T12:21:48.556Z,36.29
2019-04-16T12:25:07.589Z,34.48
2019-04-16T12:27:51.880Z,35.86
2019-04-16T12:30:38.840Z,38.04
2019-04-16T12:33:17.539Z,34.39
2019-04-16T12:36:13.242Z,36.35
2019-04-16T12:39:05.658Z,35.91
2019-04-16T12:41:59.906Z,37.39
2019-04-16T12:44:45.538Z,35.68
2019-04-16T12:47:41.004Z,37.99
2019-04-16T12:50:51.799Z,36.08
2019-04-16T12:53:35.880Z,36.70
2019-04-16T12:56:26.557Z,37.39
2019-04-16T12:59:03.224Z,35.65
2019-04-16T13:01:50.809Z,34.83
2019-04-16T13:04:27.725Z,33.10
2019-04-16T13:07:03.162Z,31.65
2019-04-16T13:10:00.401Z,32.14
2019-04-16T13:12:37.643Z,31.35
2019-04-16T13:15:24.357Z,30.42
2019-04-16T13:18:06.215Z,30.73
2019-04-16T13:20:57.250Z,32.69
2019-04-16T13:23:42.204Z,30.95
2019-04-16T13:26:24.824Z,30.98
2019-04-16T13:28:55.603Z,29.09
2019-04-16T13:31:25.882Z,32.16
2019-04-16T13:34:00.072Z,32.98
2019-04-16T13:36:30.461Z,33.77
2019-04-16T13:39:18.066Z,31.33
2019-04-16T13:41:46.651Z,31.10
2019-04-16T13:44:17.243Z,29.18
2019-04-16T13:46:47.313Z,30.57
2019-04-16T13:49:24.550Z,33.08
2019-04-16T13:51:57.430Z,29.87
2019-04-16T13:54:34.395Z,32.23
2019-04-16T13:57:06.339Z,31.81
2019-04-16T14:00:02.982Z,31.20
2019-04-16T14:02:51.082Z,32.50
2019-04-16T14:05:20.675Z,30.51
2019-04-16T14:07:49.712Z,31.24
2019-04-16T14:10:18.288Z,31.14
2019-04-16T14:12:48.201Z,31.11
2019-04-16T14:15:31.142Z,31.84
2019-04-16T14:17:52.981Z,31.14
2019-04-16T14:20:18.877Z,29.95
2019-04-16T14:22:53.279Z,30.25
2019-04-16T14:25:21.395Z,30.90
2019-04-16T14:27:50.264Z,31.94
2019-04-16T14:30:22.277Z,31.76
2019-04-16T14:32:51.148Z,29.99
2019-04-16T14:35:32.834Z,30.97
2019-04-16T14:37:52.932Z,30.62
2019-04-16T14:40:22.494Z,30.01
2019-04-16T14:42:56.253Z,30.56
2019-04-16T14:45:25.044Z,31.18
2019-04-16T14:47:54.598Z,32.32
2019-04-16T14:50:24.463Z,30.97
2019-04-16T14:52:53.161Z,30.59
2019-04-16T14:55:59.256Z,30.11
2019-04-16T14:58:50.818Z,31.26
2019-04-16T15:01:50.211Z,30.18
2019-04-16T15:04:43.195Z,30.19
2019-04-16T15:07:31.511Z,30.48
2019-04-16T15:10:18.995Z,30.83
2019-04-16T15:12:54.552Z,31.40
2019-04-16T15:15:26.982Z,31.11
2019-04-16T15:18:26.479Z,30.60
2019-04-16T15:21:10.147Z,30.05
2019-04-16T15:24:00.579Z,30.34
2019-04-16T15:26:43.156Z,31.07
2019-04-16T15:29:16.964Z,29.43
2019-04-16T15:32:05.567Z,31.82
2019-04-16T15:34:42.826Z,32.16
2019-04-16T15:37:25.736Z,30.02
2019-04-16T15:39:59.605Z,30.44
2019-04-16T15:42:41.336Z,30.11
2019-04-16T15:45:16.796Z,29.73
2019-04-16T15:48:03.566Z,30.13
2019-04-16T15:50:38.473Z,30.82
2019-04-16T15:53:12.265Z,30.68
2019-04-16T15:55:48.303Z,30.27
2019-04-16T15:58:24.622Z,30.73
2019-04-16T16:01:21.173Z,32.68
2019-04-16T16:04:32.891Z,32.45
2019-04-16T16:07:08.725Z,30.99
2019-04-16T16:10:13.970Z,31.94
2019-04-16T16:12:41.741Z,29.93
2019-04-16T16:15:10.558Z,30.93
2019-04-16T16:17:41.273Z,31.86
2019-04-16T16:20:11.402Z,32.09
2019-04-16T16:22:40.268Z,32.35
2019-04-16T16:25:09.370Z,32.47
2019-04-16T16:27:41.689Z,32.30
2019-04-16T16:30:08.572Z,31.44
2019-04-16T16:32:37.481Z,31.65
2019-04-16T16:35:09.518Z,32.41
2019-04-16T16:37:38.090Z,32.99
2019-04-16T16:40:07.251Z,32.77
2019-04-16T16:42:35.850Z,32.42
2019-04-16T16:45:04.758Z,33.07
2019-04-16T16:47:39.498Z,34.49
2019-04-16T16:50:10.324Z,33.92
2019-04-16T16:53:06.963Z,34.43
2019-04-16T16:55:39.064Z,35.37
2019-04-16T16:58:34.541Z,34.01
2019-04-16T17:01:19.784Z,34.25
2019-04-16T17:03:59.652Z,34.02
2019-04-16T17:06:28.536Z,35.30
2019-04-16T17:08:57.129Z,34.76
2019-04-16T17:11:26.094Z,36.05
2019-04-16T17:13:54.767Z,35.78
2019-04-16T17:16:23.269Z,34.74
2019-04-16T17:18:51.844Z,34.08
2019-04-16T17:21:20.392Z,35.43
2019-04-16T17:23:48.991Z,35.35
2019-04-16T17:26:17.581Z,35.41
2019-04-16T17:28:46.171Z,34.74
2019-04-16T17:31:15.144Z,35.19
2019-04-16T17:33:43.713Z,35.53
2019-04-16T17:36:12.450Z,36.54
2019-04-16T17:38:41.035Z,36.62
2019-04-16T17:41:13.486Z,37.79
2019-04-16T17:44:03.117Z,37.86
2019-04-16T17:46:47.518Z,39.03
2019-04-16T17:49:38.287Z,39.07
2019-04-16T17:52:40.922Z,38.78
2019-04-16T17:55:22.562Z,38.71
2019-04-16T17:58:10.290Z,38.35
2019-04-16T18:00:56.313Z,38.82
2019-04-16T18:03:45.092Z,37.77
2019-04-16T18:06:20.159Z,38.12
2019-04-16T18:09:06.663Z,38.54
2019-04-16T18:11:54.278Z,37.98
2019-04-16T18:14:47.935Z,37.63
2019-04-16T18:17:26.968Z,38.12
2019-04-16T18:20:05.410Z,38.63
2019-04-16T18:22:41.966Z,38.48
2019-04-16T18:25:22.969Z,39.84
2019-04-16T18:27:57.488Z,40.97
2019-04-16T18:30:45.078Z,43.16
2019-04-16T18:33:35.317Z,44.82
2019-04-16T18:36:19.212Z,44.12
2019-04-16T18:39:08.297Z,46.41
2019-04-16T18:41:53.394Z,45.62
2019-04-16T18:44:44.420Z,46.00
2019-04-16T18:47:30.793Z,45.97
2019-04-16T18:50:05.390Z,46.52
2019-04-16T18:52:36.646Z,46.86
2019-04-16T18:55:04.267Z,46.73
2019-04-16T18:57:35.520Z,47.54
2019-04-16T19:00:08.496Z,47.53
2019-04-16T19:02:41.901Z,47.48
2019-04-16T19:05:07.524Z,48.11
2019-04-16T19:07:42.229Z,48.68
2019-04-16T19:10:10.886Z,49.35
2019-04-16T19:12:39.861Z,50.22
2019-04-16T19:15:08.864Z,49.87
2019-04-16T19:17:41.011Z,49.78
2019-04-16T19:20:09.568Z,51.24
2019-04-16T19:22:38.130Z,50.51
2019-04-16T19:25:09.174Z,50.83
2019-04-16T19:27:37.417Z,50.88
2019-04-16T19:30:07.100Z,50.28
2019-04-16T19:32:35.852Z,50.50
2019-04-16T19:35:09.898Z,50.66
2019-04-16T19:37:35.119Z,50.24
2019-04-16T19:40:06.880Z,52.28
2019-04-16T19:42:35.450Z,53.50
2019-04-16T19:45:04.066Z,52.85
2019-04-16T19:47:35.355Z,52.64
2019-04-16T19:50:03.310Z,52.26
2019-04-16T19:52:32.116Z,53.94
2019-04-16T19:55:00.704Z,54.08
2019-04-16T19:57:29.698Z,54.34
2019-04-16T19:59:58.462Z,53.69
2019-04-16T20:02:27.019Z,52.89
2019-04-16T20:04:55.602Z,52.84
2019-04-16T20:07:24.184Z,53.08
2019-04-16T20:09:53.272Z,50.97
2019-04-16T20:12:21.970Z,52.60
2019-04-16T20:14:50.637Z,51.45
2019-04-16T20:17:19.195Z,50.73
2019-04-16T20:20:00.554Z,51.68
2019-04-16T20:22:30.577Z,52.97
2019-04-16T20:24:59.389Z,52.89
2019-04-16T20:27:27.980Z,52.41
2019-04-16T20:29:56.731Z,51.93
2019-04-16T20:32:27.631Z,51.48
2019-04-16T20:34:56.194Z,50.49
2019-04-16T20:37:24.790Z,50.65
2019-04-16T20:39:53.639Z,49.74
2019-04-16T20:42:22.549Z,49.75
2019-04-16T20:44:51.540Z,49.75
2019-04-16T20:47:20.103Z,49.96
2019-04-16T20:49:49.141Z,50.01
2019-04-16T20:52:20.140Z,50.83
2019-04-16T20:54:52.187Z,49.98
2019-04-16T20:57:25.300Z,51.03
2019-04-16T20:59:51.483Z,51.24
2019-04-16T21:02:20.822Z,53.03
2019-04-16T21:04:49.423Z,51.30
2019-04-16T21:07:18.014Z,51.03
2019-04-16T21:09:49.708Z,51.14
2019-04-16T21:12:20.475Z,51.79
2019-04-16T21:14:50.893Z,51.83
2019-04-16T21:17:19.905Z,52.17
2019-04-16T21:19:48.551Z,52.32
2019-04-16T21:22:18.941Z,52.38
2019-04-16T21:24:48.293Z,52.78
2019-04-16T21:27:16.978Z,53.74
2019-04-16T21:29:46.215Z,51.57
2019-04-16T21:32:33.891Z,52.14
2019-04-16T21:35:09.670Z,51.28
2019-04-16T21:37:55.923Z,50.24
2019-04-16T21:40:29.043Z,49.65
2019-04-16T21:43:06.281Z,49.90
2019-04-16T21:45:31.900Z,50.12
2019-04-16T21:48:02.710Z,50.43
2019-04-16T21:50:31.368Z,49.40
2019-04-16T21:53:01.708Z,49.01
2019-04-16T21:55:32.779Z,49.52
2019-04-16T21:58:00.852Z,51.75
2019-04-16T22:01:04.249Z,51.83
2019-04-16T22:03:31.795Z,53.39
2019-04-16T22:06:02.631Z,53.16
2019-04-16T22:08:31.594Z,52.92
2019-04-16T22:11:00.180Z,53.28
2019-04-16T22:13:29.058Z,53.58
2019-04-16T22:15:58.702Z,55.28
2019-04-16T22:18:29.050Z,53.34
2019-04-16T22:20:57.754Z,53.07
2019-04-16T22:23:29.442Z,51.13
2019-04-16T22:26:01.737Z,50.56
2019-04-16T22:28:28.984Z,50.84
2019-04-16T22:30:57.597Z,51.41
2019-04-16T22:33:26.642Z,49.78
2019-04-16T22:35:55.216Z,50.68
2019-04-16T22:38:23.772Z,49.54
2019-04-16T22:40:57.242Z,50.53
2019-04-16T22:43:43.638Z,50.21
2019-04-16T22:46:20.193Z,50.92
2019-04-16T22:48:56.539Z,51.64
2019-04-16T22:51:25.811Z,50.49
2019-04-16T22:53:54.844Z,50.49
2019-04-16T22:56:31.641Z,52.07
2019-04-16T22:59:00.373Z,49.53
2019-04-16T23:01:30.240Z,48.94
2019-04-16T23:03:58.976Z,51.16
2019-04-16T23:06:27.602Z,51.16
2019-04-16T23:08:58.419Z,50.81
2019-04-16T23:11:26.974Z,49.35
2019-04-16T23:13:55.650Z,50.12
2019-04-16T23:16:25.584Z,48.81
2019-04-16T23:18:54.149Z,48.48
2019-04-16T23:21:22.848Z,49.48
2019-04-16T23:23:52.358Z,47.70
2019-04-16T23:26:21.063Z,48.01
2019-04-16T23:28:54.866Z,48.19
2019-04-16T23:31:25.589Z,47.83
2019-04-16T23:33:54.138Z,50.43
2019-04-16T23:36:22.722Z,52.64
2019-04-16T23:38:53.264Z,52.64
2019-04-16T23:41:21.828Z,51.44
2019-04-16T23:44:00.179Z,51.44
2019-04-16T23:46:55.045Z,48.73
2019-04-16T23:49:45.783Z,48.73
2019-04-16T23:52:23.152Z,47.05
2019-04-16T23:54:55.450Z,50.93
2019-04-16T23:57:53.664Z,50.93
